sensor_id;sensor_type;location;lat;lon;timestamp;temperature;humidity
43143;DHT22;28750;59.842;17.584;2023-08-07T00:02:09;19.20;99.90
43143;DHT22;28750;59.842;17.584;2023-08-07T00:04:36;19.30;99.90
43143;DHT22;28750;59.842;17.584;2023-08-07T00:07:04;19.30;99.90
43143;DHT22;28750;59.842;17.584;2023-08-07T00:09:31;19.40;99.90
43143;DHT22;28750;59.842;17.584;2023-08-07T00:11:58;19.40;99.90
43143;DHT22;28750;59.842;17.584;2023-08-07T00:14:25;19.30;99.90
43143;DHT22;28750;59.842;17.584;2023-08-07T00:16:52;19.30;99.90
43143;DHT22;28750;59.842;17.584;2023-08-07T00:19:19;19.50;99.90
43143;DHT22;28750;59.842;17.584;2023-08-07T00:21:47;19.40;99.90
43143;DHT22;28750;59.842;17.584;2023-08-07T00:24:14;19.40;99.90
43143;DHT22;28750;59.842;17.584;2023-08-07T00:26:41;19.40;99.90
43143;DHT22;28750;59.842;17.584;2023-08-07T00:29:08;19.50;99.90
43143;DHT22;28750;59.842;17.584;2023-08-07T00:31:35;19.40;99.90
43143;DHT22;28750;59.842;17.584;2023-08-07T00:34:02;19.40;99.90
43143;DHT22;28750;59.842;17.584;2023-08-07T00:36:30;19.40;99.90
43143;DHT22;28750;59.842;17.584;2023-08-07T00:39:00;19.50;99.90
43143;DHT22;28750;59.842;17.584;2023-08-07T00:41:29;19.50;99.90
43143;DHT22;28750;59.842;17.584;2023-08-07T00:43:56;19.50;99.90
43143;DHT22;28750;59.842;17.584;2023-08-07T00:46:23;19.40;99.90
43143;DHT22;28750;59.842;17.584;2023-08-07T00:48:52;19.40;99.90
43143;DHT22;28750;59.842;17.584;2023-08-07T00:51:20;19.40;99.90
43143;DHT22;28750;59.842;17.584;2023-08-07T00:53:48;19.50;99.90
43143;DHT22;28750;59.842;17.584;2023-08-07T00:56:16;19.40;99.90
43143;DHT22;28750;59.842;17.584;2023-08-07T00:58:43;19.40;99.90
43143;DHT22;28750;59.842;17.584;2023-08-07T01:01:10;19.40;99.90
43143;DHT22;28750;59.842;17.584;2023-08-07T01:03:38;19.30;99.90
43143;DHT22;28750;59.842;17.584;2023-08-07T01:06:05;19.30;99.90
43143;DHT22;28750;59.842;17.584;2023-08-07T01:08:33;19.30;99.90
43143;DHT22;28750;59.842;17.584;2023-08-07T01:11:18;19.30;99.90
43143;DHT22;28750;59.842;17.584;2023-08-07T01:16:20;19.40;99.90
43143;DHT22;28750;59.842;17.584;2023-08-07T01:18:49;19.40;99.90
43143;DHT22;28750;59.842;17.584;2023-08-07T01:21:20;19.40;99.90
43143;DHT22;28750;59.842;17.584;2023-08-07T01:23:48;19.50;99.90
43143;DHT22;28750;59.842;17.584;2023-08-07T01:26:18;19.50;99.90
43143;DHT22;28750;59.842;17.584;2023-08-07T01:28:50;19.50;99.90
43143;DHT22;28750;59.842;17.584;2023-08-07T01:31:20;19.50;99.90
43143;DHT22;28750;59.842;17.584;2023-08-07T01:34:05;19.60;99.90
43143;DHT22;28750;59.842;17.584;2023-08-07T01:36:34;19.60;99.90
43143;DHT22;28750;59.842;17.584;2023-08-07T01:39:02;19.60;99.90
43143;DHT22;28750;59.842;17.584;2023-08-07T01:41:32;19.60;99.90
43143;DHT22;28750;59.842;17.584;2023-08-07T01:44:00;19.60;99.90
43143;DHT22;28750;59.842;17.584;2023-08-07T01:46:27;19.70;99.90
43143;DHT22;28750;59.842;17.584;2023-08-07T01:48:54;19.60;99.90
43143;DHT22;28750;59.842;17.584;2023-08-07T01:51:21;19.60;99.90
43143;DHT22;28750;59.842;17.584;2023-08-07T01:53:48;19.60;99.90
43143;DHT22;28750;59.842;17.584;2023-08-07T01:56:16;19.70;99.90
43143;DHT22;28750;59.842;17.584;2023-08-07T01:58:43;19.60;99.90
43143;DHT22;28750;59.842;17.584;2023-08-07T02:01:10;19.70;99.90
43143;DHT22;28750;59.842;17.584;2023-08-07T02:03:37;19.70;99.90
43143;DHT22;28750;59.842;17.584;2023-08-07T02:06:04;19.70;99.90
43143;DHT22;28750;59.842;17.584;2023-08-07T02:08:31;19.70;99.90
43143;DHT22;28750;59.842;17.584;2023-08-07T02:10:58;19.70;99.90
43143;DHT22;28750;59.842;17.584;2023-08-07T02:13:27;19.80;99.90
43143;DHT22;28750;59.842;17.584;2023-08-07T02:15:54;19.90;99.90
43143;DHT22;28750;59.842;17.584;2023-08-07T02:18:21;19.90;99.90
43143;DHT22;28750;59.842;17.584;2023-08-07T02:20:48;19.90;99.90
43143;DHT22;28750;59.842;17.584;2023-08-07T02:23:15;20.00;99.90
43143;DHT22;28750;59.842;17.584;2023-08-07T02:25:42;20.00;99.90
43143;DHT22;28750;59.842;17.584;2023-08-07T02:28:11;20.00;99.90
43143;DHT22;28750;59.842;17.584;2023-08-07T02:30:38;20.00;99.90
43143;DHT22;28750;59.842;17.584;2023-08-07T02:33:05;20.00;99.90
43143;DHT22;28750;59.842;17.584;2023-08-07T02:35:32;20.00;99.90
43143;DHT22;28750;59.842;17.584;2023-08-07T02:37:59;20.10;99.90
43143;DHT22;28750;59.842;17.584;2023-08-07T02:40:26;20.10;99.90
43143;DHT22;28750;59.842;17.584;2023-08-07T02:42:54;20.10;99.90
43143;DHT22;28750;59.842;17.584;2023-08-07T02:45:21;20.10;99.90
43143;DHT22;28750;59.842;17.584;2023-08-07T02:47:48;20.10;99.90
43143;DHT22;28750;59.842;17.584;2023-08-07T02:50:15;20.10;99.90
43143;DHT22;28750;59.842;17.584;2023-08-07T02:52:42;20.20;99.90
43143;DHT22;28750;59.842;17.584;2023-08-07T02:55:10;20.20;99.90
43143;DHT22;28750;59.842;17.584;2023-08-07T02:57:37;20.10;99.90
43143;DHT22;28750;59.842;17.584;2023-08-07T03:00:04;20.20;99.90
43143;DHT22;28750;59.842;17.584;2023-08-07T03:02:32;20.20;99.90
43143;DHT22;28750;59.842;17.584;2023-08-07T03:04:59;20.20;99.90
43143;DHT22;28750;59.842;17.584;2023-08-07T03:07:26;20.20;99.90
43143;DHT22;28750;59.842;17.584;2023-08-07T03:09:53;20.30;99.90
43143;DHT22;28750;59.842;17.584;2023-08-07T03:12:20;20.30;99.90
43143;DHT22;28750;59.842;17.584;2023-08-07T03:14:48;20.30;99.90
43143;DHT22;28750;59.842;17.584;2023-08-07T03:17:15;20.40;99.90
43143;DHT22;28750;59.842;17.584;2023-08-07T03:19:43;20.30;99.90
43143;DHT22;28750;59.842;17.584;2023-08-07T03:22:10;20.30;99.90
43143;DHT22;28750;59.842;17.584;2023-08-07T03:24:37;20.30;99.90
43143;DHT22;28750;59.842;17.584;2023-08-07T03:27:04;20.30;99.90
43143;DHT22;28750;59.842;17.584;2023-08-07T03:45:47;20.50;99.90
43143;DHT22;28750;59.842;17.584;2023-08-07T03:48:14;20.40;99.90
43143;DHT22;28750;59.842;17.584;2023-08-07T03:50:41;20.30;99.90
43143;DHT22;28750;59.842;17.584;2023-08-07T03:53:08;20.40;99.90
43143;DHT22;28750;59.842;17.584;2023-08-07T03:55:35;20.30;99.90
43143;DHT22;28750;59.842;17.584;2023-08-07T03:58:02;20.40;99.90
43143;DHT22;28750;59.842;17.584;2023-08-07T04:00:29;20.40;99.90
43143;DHT22;28750;59.842;17.584;2023-08-07T04:02:56;20.50;99.90
43143;DHT22;28750;59.842;17.584;2023-08-07T04:05:24;20.50;99.90
43143;DHT22;28750;59.842;17.584;2023-08-07T04:07:51;20.50;99.90
43143;DHT22;28750;59.842;17.584;2023-08-07T04:10:18;20.50;99.90
43143;DHT22;28750;59.842;17.584;2023-08-07T04:12:45;20.50;99.90
43143;DHT22;28750;59.842;17.584;2023-08-07T04:15:12;20.50;99.90
43143;DHT22;28750;59.842;17.584;2023-08-07T04:17:39;20.60;99.90
43143;DHT22;28750;59.842;17.584;2023-08-07T04:20:07;20.60;99.90
43143;DHT22;28750;59.842;17.584;2023-08-07T04:22:34;20.60;99.90
43143;DHT22;28750;59.842;17.584;2023-08-07T04:25:02;20.60;99.90
43143;DHT22;28750;59.842;17.584;2023-08-07T04:27:29;20.60;99.90
43143;DHT22;28750;59.842;17.584;2023-08-07T04:29:56;20.60;99.90
43143;DHT22;28750;59.842;17.584;2023-08-07T04:32:23;20.60;99.90
43143;DHT22;28750;59.842;17.584;2023-08-07T04:34:50;20.70;99.90
43143;DHT22;28750;59.842;17.584;2023-08-07T04:37:17;20.70;99.90
43143;DHT22;28750;59.842;17.584;2023-08-07T04:39:44;20.70;99.90
43143;DHT22;28750;59.842;17.584;2023-08-07T04:42:12;20.70;99.90
43143;DHT22;28750;59.842;17.584;2023-08-07T04:44:39;20.80;99.90
43143;DHT22;28750;59.842;17.584;2023-08-07T04:47:06;20.80;99.90
43143;DHT22;28750;59.842;17.584;2023-08-07T04:49:33;20.80;99.90
43143;DHT22;28750;59.842;17.584;2023-08-07T04:52:00;20.90;99.90
43143;DHT22;28750;59.842;17.584;2023-08-07T04:54:27;20.90;99.90
43143;DHT22;28750;59.842;17.584;2023-08-07T04:56:54;21.00;99.90
43143;DHT22;28750;59.842;17.584;2023-08-07T04:59:22;21.00;99.90
43143;DHT22;28750;59.842;17.584;2023-08-07T05:01:49;21.00;99.90
43143;DHT22;28750;59.842;17.584;2023-08-07T05:04:16;21.00;99.90
43143;DHT22;28750;59.842;17.584;2023-08-07T05:06:43;21.00;99.90
43143;DHT22;28750;59.842;17.584;2023-08-07T05:09:10;21.00;99.90
43143;DHT22;28750;59.842;17.584;2023-08-07T05:11:37;21.00;99.90
43143;DHT22;28750;59.842;17.584;2023-08-07T05:14:04;21.00;99.90
43143;DHT22;28750;59.842;17.584;2023-08-07T05:16:31;21.10;99.90
43143;DHT22;28750;59.842;17.584;2023-08-07T05:18:58;21.00;99.90
43143;DHT22;28750;59.842;17.584;2023-08-07T05:21:25;21.00;99.90
43143;DHT22;28750;59.842;17.584;2023-08-07T05:23:52;20.90;99.90
43143;DHT22;28750;59.842;17.584;2023-08-07T05:26:21;20.90;99.90
43143;DHT22;28750;59.842;17.584;2023-08-07T05:28:48;20.90;99.90
43143;DHT22;28750;59.842;17.584;2023-08-07T05:31:15;20.90;99.90
43143;DHT22;28750;59.842;17.584;2023-08-07T05:33:42;20.90;99.90
43143;DHT22;28750;59.842;17.584;2023-08-07T05:36:09;20.90;99.90
43143;DHT22;28750;59.842;17.584;2023-08-07T05:38:36;20.90;99.90
43143;DHT22;28750;59.842;17.584;2023-08-07T05:41:03;20.70;99.90
43143;DHT22;28750;59.842;17.584;2023-08-07T05:43:31;20.70;99.90
43143;DHT22;28750;59.842;17.584;2023-08-07T05:45:58;20.70;99.90
43143;DHT22;28750;59.842;17.584;2023-08-07T05:48:25;20.70;99.90
43143;DHT22;28750;59.842;17.584;2023-08-07T05:50:52;20.70;99.90
43143;DHT22;28750;59.842;17.584;2023-08-07T05:53:20;20.70;99.90
43143;DHT22;28750;59.842;17.584;2023-08-07T05:55:47;20.70;99.90
43143;DHT22;28750;59.842;17.584;2023-08-07T05:58:14;20.70;99.90
43143;DHT22;28750;59.842;17.584;2023-08-07T06:00:41;20.70;99.90
43143;DHT22;28750;59.842;17.584;2023-08-07T06:03:08;20.70;99.90
43143;DHT22;28750;59.842;17.584;2023-08-07T06:05:35;20.70;99.90
43143;DHT22;28750;59.842;17.584;2023-08-07T06:08:02;20.70;99.90
43143;DHT22;28750;59.842;17.584;2023-08-07T06:10:29;20.70;99.90
43143;DHT22;28750;59.842;17.584;2023-08-07T06:12:57;20.80;99.90
43143;DHT22;28750;59.842;17.584;2023-08-07T06:15:24;20.90;99.90
43143;DHT22;28750;59.842;17.584;2023-08-07T06:17:51;21.10;99.90
43143;DHT22;28750;59.842;17.584;2023-08-07T06:20:18;21.50;99.90
43143;DHT22;28750;59.842;17.584;2023-08-07T06:22:46;21.50;99.90
43143;DHT22;28750;59.842;17.584;2023-08-07T06:25:13;21.70;99.90
43143;DHT22;28750;59.842;17.584;2023-08-07T06:27:40;21.70;99.90
43143;DHT22;28750;59.842;17.584;2023-08-07T06:30:07;21.50;99.90
43143;DHT22;28750;59.842;17.584;2023-08-07T06:32:35;21.60;99.90
43143;DHT22;28750;59.842;17.584;2023-08-07T06:35:03;21.60;99.90
43143;DHT22;28750;59.842;17.584;2023-08-07T06:37:31;21.50;99.90
43143;DHT22;28750;59.842;17.584;2023-08-07T06:39:58;21.50;99.90
43143;DHT22;28750;59.842;17.584;2023-08-07T06:42:25;21.50;99.90
43143;DHT22;28750;59.842;17.584;2023-08-07T06:44:52;21.40;99.90
43143;DHT22;28750;59.842;17.584;2023-08-07T06:47:20;21.30;99.90
43143;DHT22;28750;59.842;17.584;2023-08-07T06:49:47;21.20;99.90
43143;DHT22;28750;59.842;17.584;2023-08-07T06:52:14;21.20;99.90
43143;DHT22;28750;59.842;17.584;2023-08-07T06:54:41;21.30;99.90
43143;DHT22;28750;59.842;17.584;2023-08-07T06:57:08;21.30;99.90
43143;DHT22;28750;59.842;17.584;2023-08-07T06:59:35;21.30;99.90
43143;DHT22;28750;59.842;17.584;2023-08-07T07:02:04;21.40;99.90
43143;DHT22;28750;59.842;17.584;2023-08-07T07:04:31;21.40;99.90
43143;DHT22;28750;59.842;17.584;2023-08-07T07:06:59;21.50;99.90
43143;DHT22;28750;59.842;17.584;2023-08-07T07:09:26;21.40;99.90
43143;DHT22;28750;59.842;17.584;2023-08-07T07:11:55;21.50;99.90
43143;DHT22;28750;59.842;17.584;2023-08-07T07:14:23;21.50;99.90
43143;DHT22;28750;59.842;17.584;2023-08-07T07:16:50;21.60;99.90
43143;DHT22;28750;59.842;17.584;2023-08-07T07:19:17;22.00;99.90
43143;DHT22;28750;59.842;17.584;2023-08-07T07:21:44;22.10;99.90
43143;DHT22;28750;59.842;17.584;2023-08-07T07:24:11;22.10;99.90
43143;DHT22;28750;59.842;17.584;2023-08-07T07:26:38;21.80;99.90
43143;DHT22;28750;59.842;17.584;2023-08-07T07:29:06;21.80;99.90
43143;DHT22;28750;59.842;17.584;2023-08-07T07:31:33;21.70;99.90
43143;DHT22;28750;59.842;17.584;2023-08-07T07:34:00;21.70;99.90
43143;DHT22;28750;59.842;17.584;2023-08-07T07:36:28;21.80;99.90
43143;DHT22;28750;59.842;17.584;2023-08-07T07:38:56;22.00;99.90
43143;DHT22;28750;59.842;17.584;2023-08-07T07:41:23;22.20;99.90
43143;DHT22;28750;59.842;17.584;2023-08-07T07:43:50;22.30;99.90
43143;DHT22;28750;59.842;17.584;2023-08-07T07:46:17;22.30;99.90
43143;DHT22;28750;59.842;17.584;2023-08-07T07:48:44;22.30;99.90
43143;DHT22;28750;59.842;17.584;2023-08-07T07:51:11;22.50;99.90
43143;DHT22;28750;59.842;17.584;2023-08-07T07:53:38;22.60;99.90
43143;DHT22;28750;59.842;17.584;2023-08-07T07:56:06;22.20;99.90
43143;DHT22;28750;59.842;17.584;2023-08-07T07:58:33;22.20;99.90
43143;DHT22;28750;59.842;17.584;2023-08-07T08:01:00;22.40;99.90
43143;DHT22;28750;59.842;17.584;2023-08-07T08:03:27;22.90;99.90
43143;DHT22;28750;59.842;17.584;2023-08-07T08:05:54;23.30;99.90
43143;DHT22;28750;59.842;17.584;2023-08-07T08:08:21;23.60;99.90
43143;DHT22;28750;59.842;17.584;2023-08-07T08:10:48;23.00;99.90
43143;DHT22;28750;59.842;17.584;2023-08-07T08:13:17;22.90;99.90
43143;DHT22;28750;59.842;17.584;2023-08-07T08:15:44;22.60;99.90
43143;DHT22;28750;59.842;17.584;2023-08-07T08:18:12;22.70;99.90
43143;DHT22;28750;59.842;17.584;2023-08-07T08:20:39;23.00;99.90
43143;DHT22;28750;59.842;17.584;2023-08-07T08:23:06;23.10;99.90
43143;DHT22;28750;59.842;17.584;2023-08-07T08:25:33;23.40;99.90
43143;DHT22;28750;59.842;17.584;2023-08-07T08:28:01;23.30;99.90
43143;DHT22;28750;59.842;17.584;2023-08-07T08:30:28;23.10;99.90
43143;DHT22;28750;59.842;17.584;2023-08-07T08:32:56;22.90;99.90
43143;DHT22;28750;59.842;17.584;2023-08-07T08:35:23;22.80;99.90
43143;DHT22;28750;59.842;17.584;2023-08-07T08:37:51;22.70;99.90
43143;DHT22;28750;59.842;17.584;2023-08-07T08:40:18;22.70;99.90
43143;DHT22;28750;59.842;17.584;2023-08-07T08:42:46;22.60;99.90
43143;DHT22;28750;59.842;17.584;2023-08-07T08:45:14;22.50;99.90
43143;DHT22;28750;59.842;17.584;2023-08-07T08:47:42;22.80;99.90
43143;DHT22;28750;59.842;17.584;2023-08-07T08:50:14;23.30;99.90
43143;DHT22;28750;59.842;17.584;2023-08-07T08:52:43;23.90;99.90
43143;DHT22;28750;59.842;17.584;2023-08-07T08:55:11;23.70;99.90
43143;DHT22;28750;59.842;17.584;2023-08-07T08:57:39;23.30;99.90
43143;DHT22;28750;59.842;17.584;2023-08-07T09:00:08;23.30;99.90
43143;DHT22;28750;59.842;17.584;2023-08-07T09:02:51;22.90;99.90
43143;DHT22;28750;59.842;17.584;2023-08-07T09:05:20;23.30;99.90
43143;DHT22;28750;59.842;17.584;2023-08-07T09:07:48;23.90;99.90
43143;DHT22;28750;59.842;17.584;2023-08-07T09:10:16;24.10;99.90
43143;DHT22;28750;59.842;17.584;2023-08-07T09:13:04;24.40;99.90
43143;DHT22;28750;59.842;17.584;2023-08-07T09:15:32;24.50;99.90
43143;DHT22;28750;59.842;17.584;2023-08-07T09:18:01;24.50;99.90
43143;DHT22;28750;59.842;17.584;2023-08-07T09:20:33;24.20;99.90
43143;DHT22;28750;59.842;17.584;2023-08-07T09:23:02;24.30;99.90
43143;DHT22;28750;59.842;17.584;2023-08-07T09:25:31;24.40;99.90
43143;DHT22;28750;59.842;17.584;2023-08-07T09:28:00;24.40;99.90
43143;DHT22;28750;59.842;17.584;2023-08-07T09:30:30;24.80;99.90
43143;DHT22;28750;59.842;17.584;2023-08-07T09:33:01;25.00;99.90
43143;DHT22;28750;59.842;17.584;2023-08-07T09:35:29;25.10;99.90
43143;DHT22;28750;59.842;17.584;2023-08-07T09:37:57;25.20;99.90
43143;DHT22;28750;59.842;17.584;2023-08-07T09:40:24;25.50;99.90
43143;DHT22;28750;59.842;17.584;2023-08-07T09:42:53;25.50;99.90
43143;DHT22;28750;59.842;17.584;2023-08-07T09:45:21;25.30;99.90
43143;DHT22;28750;59.842;17.584;2023-08-07T09:48:02;25.50;1.00
43143;DHT22;28750;59.842;17.584;2023-08-07T09:50:30;26.00;99.90
43143;DHT22;28750;59.842;17.584;2023-08-07T09:52:59;25.70;37.50
43143;DHT22;28750;59.842;17.584;2023-08-07T09:55:26;25.80;99.90
43143;DHT22;28750;59.842;17.584;2023-08-07T09:57:54;25.30;1.00
43143;DHT22;28750;59.842;17.584;2023-08-07T10:00:21;25.00;1.00
43143;DHT22;28750;59.842;17.584;2023-08-07T10:02:50;25.00;85.30
43143;DHT22;28750;59.842;17.584;2023-08-07T10:05:17;24.80;81.70
43143;DHT22;28750;59.842;17.584;2023-08-07T10:07:46;24.80;99.90
43143;DHT22;28750;59.842;17.584;2023-08-07T10:10:15;24.70;99.90
43143;DHT22;28750;59.842;17.584;2023-08-07T10:12:43;24.60;99.90
43143;DHT22;28750;59.842;17.584;2023-08-07T10:15:11;24.40;99.90
43143;DHT22;28750;59.842;17.584;2023-08-07T10:17:39;24.30;99.90
43143;DHT22;28750;59.842;17.584;2023-08-07T10:20:07;24.50;99.90
43143;DHT22;28750;59.842;17.584;2023-08-07T10:22:35;24.30;99.90
43143;DHT22;28750;59.842;17.584;2023-08-07T10:25:06;24.20;99.90
43143;DHT22;28750;59.842;17.584;2023-08-07T10:27:37;24.30;99.90
43143;DHT22;28750;59.842;17.584;2023-08-07T10:30:07;24.30;99.90
43143;DHT22;28750;59.842;17.584;2023-08-07T10:32:35;24.20;99.90
43143;DHT22;28750;59.842;17.584;2023-08-07T10:35:04;24.20;99.90
43143;DHT22;28750;59.842;17.584;2023-08-07T10:37:42;24.10;99.90
43143;DHT22;28750;59.842;17.584;2023-08-07T10:40:12;24.00;99.90
43143;DHT22;28750;59.842;17.584;2023-08-07T10:42:54;23.90;99.90
43143;DHT22;28750;59.842;17.584;2023-08-07T10:45:23;23.90;99.90
43143;DHT22;28750;59.842;17.584;2023-08-07T10:48:12;24.00;99.90
43143;DHT22;28750;59.842;17.584;2023-08-07T10:53:30;24.20;99.90
43143;DHT22;28750;59.842;17.584;2023-08-07T10:56:02;24.40;99.90
43143;DHT22;28750;59.842;17.584;2023-08-07T10:58:33;24.20;99.90
43143;DHT22;28750;59.842;17.584;2023-08-07T11:01:20;24.00;99.90
43143;DHT22;28750;59.842;17.584;2023-08-07T11:03:51;24.00;99.90
43143;DHT22;28750;59.842;17.584;2023-08-07T11:06:23;24.20;99.90
43143;DHT22;28750;59.842;17.584;2023-08-07T11:08:52;24.10;99.90
43143;DHT22;28750;59.842;17.584;2023-08-07T11:11:19;24.00;99.90
43143;DHT22;28750;59.842;17.584;2023-08-07T11:13:46;23.90;99.90
43143;DHT22;28750;59.842;17.584;2023-08-07T11:16:14;24.00;99.90
43143;DHT22;28750;59.842;17.584;2023-08-07T11:18:42;24.00;99.90
43143;DHT22;28750;59.842;17.584;2023-08-07T11:21:11;23.90;99.90
43143;DHT22;28750;59.842;17.584;2023-08-07T11:23:39;24.00;99.90
43143;DHT22;28750;59.842;17.584;2023-08-07T11:26:07;24.40;99.90
43143;DHT22;28750;59.842;17.584;2023-08-07T11:28:35;24.70;99.90
43143;DHT22;28750;59.842;17.584;2023-08-07T11:31:02;24.80;99.90
43143;DHT22;28750;59.842;17.584;2023-08-07T11:33:30;24.80;99.90
43143;DHT22;28750;59.842;17.584;2023-08-07T11:35:57;24.70;99.90
43143;DHT22;28750;59.842;17.584;2023-08-07T11:38:36;24.90;99.90
43143;DHT22;28750;59.842;17.584;2023-08-07T11:41:07;25.90;1.00
43143;DHT22;28750;59.842;17.584;2023-08-07T11:43:35;26.30;1.00
43143;DHT22;28750;59.842;17.584;2023-08-07T11:46:04;25.60;99.90
43143;DHT22;28750;59.842;17.584;2023-08-07T11:48:34;25.30;99.90
43143;DHT22;28750;59.842;17.584;2023-08-07T11:51:02;25.30;1.00
43143;DHT22;28750;59.842;17.584;2023-08-07T11:53:32;25.00;1.00
43143;DHT22;28750;59.842;17.584;2023-08-07T11:56:02;24.90;1.00
43143;DHT22;28750;59.842;17.584;2023-08-07T12:01:06;24.90;1.00
43143;DHT22;28750;59.842;17.584;2023-08-07T12:03:37;24.70;99.90
43143;DHT22;28750;59.842;17.584;2023-08-07T12:06:06;24.70;99.90
43143;DHT22;28750;59.842;17.584;2023-08-07T12:08:41;24.60;1.00
43143;DHT22;28750;59.842;17.584;2023-08-07T12:11:12;24.30;52.50
43143;DHT22;28750;59.842;17.584;2023-08-07T12:13:44;24.10;99.90
43143;DHT22;28750;59.842;17.584;2023-08-07T12:16:12;24.00;99.90
43143;DHT22;28750;59.842;17.584;2023-08-07T12:18:59;24.00;99.90
43143;DHT22;28750;59.842;17.584;2023-08-07T12:21:26;24.10;99.90
43143;DHT22;28750;59.842;17.584;2023-08-07T12:23:59;24.20;99.90
43143;DHT22;28750;59.842;17.584;2023-08-07T12:26:26;24.40;99.90
43143;DHT22;28750;59.842;17.584;2023-08-07T12:28:53;24.70;99.90
43143;DHT22;28750;59.842;17.584;2023-08-07T12:31:20;25.40;99.90
43143;DHT22;28750;59.842;17.584;2023-08-07T12:33:48;25.40;99.90
43143;DHT22;28750;59.842;17.584;2023-08-07T12:36:15;25.20;94.80
43143;DHT22;28750;59.842;17.584;2023-08-07T12:38:42;25.60;99.90
43143;DHT22;28750;59.842;17.584;2023-08-07T12:41:09;25.50;1.00
43143;DHT22;28750;59.842;17.584;2023-08-07T12:43:36;25.70;1.00
43143;DHT22;28750;59.842;17.584;2023-08-07T12:46:03;25.70;99.90
43143;DHT22;28750;59.842;17.584;2023-08-07T12:48:31;25.40;99.90
43143;DHT22;28750;59.842;17.584;2023-08-07T12:50:58;25.20;51.90
43143;DHT22;28750;59.842;17.584;2023-08-07T12:53:25;25.30;99.90
43143;DHT22;28750;59.842;17.584;2023-08-07T12:55:52;25.40;99.90
43143;DHT22;28750;59.842;17.584;2023-08-07T12:58:20;25.40;99.90
43143;DHT22;28750;59.842;17.584;2023-08-07T13:00:51;25.20;99.90
43143;DHT22;28750;59.842;17.584;2023-08-07T13:03:18;25.00;99.90
43143;DHT22;28750;59.842;17.584;2023-08-07T13:05:46;24.90;99.90
43143;DHT22;28750;59.842;17.584;2023-08-07T13:08:13;24.90;99.90
43143;DHT22;28750;59.842;17.584;2023-08-07T13:10:40;25.00;99.90
43143;DHT22;28750;59.842;17.584;2023-08-07T13:13:07;25.10;99.90
43143;DHT22;28750;59.842;17.584;2023-08-07T13:15:34;25.40;1.00
43143;DHT22;28750;59.842;17.584;2023-08-07T13:18:01;25.40;99.90
43143;DHT22;28750;59.842;17.584;2023-08-07T13:20:29;25.00;1.00
43143;DHT22;28750;59.842;17.584;2023-08-07T13:22:59;24.90;99.90
43143;DHT22;28750;59.842;17.584;2023-08-07T13:25:27;24.80;99.90
43143;DHT22;28750;59.842;17.584;2023-08-07T13:27:54;24.70;1.00
43143;DHT22;28750;59.842;17.584;2023-08-07T13:30:21;24.80;42.60
43143;DHT22;28750;59.842;17.584;2023-08-07T13:32:48;25.00;14.30
43143;DHT22;28750;59.842;17.584;2023-08-07T13:35:16;25.00;1.00
43143;DHT22;28750;59.842;17.584;2023-08-07T13:37:43;24.90;99.90
43143;DHT22;28750;59.842;17.584;2023-08-07T13:40:10;24.90;99.90
43143;DHT22;28750;59.842;17.584;2023-08-07T13:42:39;24.80;99.90
43143;DHT22;28750;59.842;17.584;2023-08-07T13:45:07;24.60;99.90
43143;DHT22;28750;59.842;17.584;2023-08-07T13:47:35;24.70;1.00
43143;DHT22;28750;59.842;17.584;2023-08-07T13:50:03;24.70;99.90
43143;DHT22;28750;59.842;17.584;2023-08-07T13:52:31;24.50;99.90
43143;DHT22;28750;59.842;17.584;2023-08-07T13:54:58;24.40;99.90
43143;DHT22;28750;59.842;17.584;2023-08-07T13:57:25;24.30;99.90
43143;DHT22;28750;59.842;17.584;2023-08-07T13:59:52;24.50;99.90
43143;DHT22;28750;59.842;17.584;2023-08-07T14:02:20;24.30;99.90
43143;DHT22;28750;59.842;17.584;2023-08-07T14:04:47;24.40;99.90
43143;DHT22;28750;59.842;17.584;2023-08-07T14:07:14;24.50;99.90
43143;DHT22;28750;59.842;17.584;2023-08-07T14:09:41;24.60;4.40
43143;DHT22;28750;59.842;17.584;2023-08-07T14:12:09;24.80;99.90
43143;DHT22;28750;59.842;17.584;2023-08-07T14:14:36;24.80;99.90
43143;DHT22;28750;59.842;17.584;2023-08-07T14:17:03;25.00;23.80
43143;DHT22;28750;59.842;17.584;2023-08-07T14:19:30;25.00;1.00
43143;DHT22;28750;59.842;17.584;2023-08-07T14:21:58;24.90;99.90
43143;DHT22;28750;59.842;17.584;2023-08-07T14:24:25;24.90;99.90
43143;DHT22;28750;59.842;17.584;2023-08-07T14:26:52;24.90;99.90
43143;DHT22;28750;59.842;17.584;2023-08-07T14:29:19;24.80;99.90
43143;DHT22;28750;59.842;17.584;2023-08-07T14:31:46;24.70;99.90
43143;DHT22;28750;59.842;17.584;2023-08-07T14:34:14;24.60;1.00
43143;DHT22;28750;59.842;17.584;2023-08-07T14:36:41;24.50;99.90
43143;DHT22;28750;59.842;17.584;2023-08-07T14:39:08;24.40;99.90
43143;DHT22;28750;59.842;17.584;2023-08-07T14:41:35;24.40;1.00
43143;DHT22;28750;59.842;17.584;2023-08-07T14:44:03;24.40;99.90
43143;DHT22;28750;59.842;17.584;2023-08-07T14:46:30;24.30;99.90
43143;DHT22;28750;59.842;17.584;2023-08-07T14:48:57;24.10;99.90
43143;DHT22;28750;59.842;17.584;2023-08-07T14:51:24;24.00;99.90
43143;DHT22;28750;59.842;17.584;2023-08-07T14:53:51;24.00;99.90
43143;DHT22;28750;59.842;17.584;2023-08-07T14:56:18;24.10;99.90
43143;DHT22;28750;59.842;17.584;2023-08-07T14:58:45;24.10;99.90
43143;DHT22;28750;59.842;17.584;2023-08-07T15:01:12;24.10;99.90
43143;DHT22;28750;59.842;17.584;2023-08-07T15:03:39;24.00;99.90
43143;DHT22;28750;59.842;17.584;2023-08-07T15:06:06;23.90;47.70
43143;DHT22;28750;59.842;17.584;2023-08-07T15:08:34;23.80;99.90
43143;DHT22;28750;59.842;17.584;2023-08-07T15:11:01;23.70;99.90
43143;DHT22;28750;59.842;17.584;2023-08-07T15:13:28;23.50;37.90
43143;DHT22;28750;59.842;17.584;2023-08-07T15:15:55;23.40;99.90
43143;DHT22;28750;59.842;17.584;2023-08-07T15:18:22;23.20;99.90
43143;DHT22;28750;59.842;17.584;2023-08-07T15:20:49;23.20;99.90
43143;DHT22;28750;59.842;17.584;2023-08-07T15:23:17;23.20;99.90
43143;DHT22;28750;59.842;17.584;2023-08-07T15:25:44;23.20;99.90
43143;DHT22;28750;59.842;17.584;2023-08-07T15:28:11;23.10;99.90
43143;DHT22;28750;59.842;17.584;2023-08-07T15:30:38;23.10;99.90
43143;DHT22;28750;59.842;17.584;2023-08-07T15:33:06;23.00;99.90
43143;DHT22;28750;59.842;17.584;2023-08-07T15:35:33;23.00;99.90
43143;DHT22;28750;59.842;17.584;2023-08-07T15:38:00;23.00;99.90
43143;DHT22;28750;59.842;17.584;2023-08-07T15:40:27;23.00;99.90
43143;DHT22;28750;59.842;17.584;2023-08-07T15:42:55;22.90;99.90
43143;DHT22;28750;59.842;17.584;2023-08-07T15:45:22;22.90;99.90
43143;DHT22;28750;59.842;17.584;2023-08-07T15:47:49;22.70;99.90